createdAt,value
2023-04-15T00:03:26.417Z,99635.38
2023-04-15T00:08:23.009Z,99637.06
2023-04-15T00:13:19.299Z,99637.91
2023-04-15T00:18:15.535Z,99633.06
2023-04-15T00:23:11.785Z,99623.56
2023-04-15T00:28:08.575Z,99629.66
2023-04-15T00:33:04.819Z,99621.44
2023-04-15T00:38:01.143Z,99624.66
2023-04-15T00:42:57.412Z,99622.84
2023-04-15T00:47:53.844Z,99618.59
2023-04-15T00:52:50.181Z,99615.41
2023-04-15T00:57:46.518Z,99618.25
2023-04-15T01:02:42.905Z,99615.81
2023-04-15T01:07:39.248Z,99615.81
2023-04-15T01:12:36.409Z,99615.72
2023-04-15T01:17:32.896Z,99616.88
2023-04-15T01:22:29.256Z,99620.38
2023-04-15T01:27:25.550Z,99617.53
2023-04-15T01:32:21.807Z,99624.16
2023-04-15T01:37:18.108Z,99623.72
2023-04-15T01:42:14.395Z,99614.53
2023-04-15T01:47:10.628Z,99627.56
2023-04-15T01:52:06.922Z,99631.78
2023-04-15T01:57:03.656Z,99633.31
2023-04-15T02:02:00.394Z,99643.78
2023-04-15T02:06:56.824Z,99639.63
2023-04-15T02:11:54.379Z,99640.59
2023-04-15T02:16:51.026Z,99644.97
2023-04-15T02:21:47.370Z,99648.03
2023-04-15T02:26:43.679Z,99646.22
2023-04-15T02:31:42.110Z,99646.34
2023-04-15T02:36:39.100Z,99641.69
2023-04-15T02:41:35.468Z,99643.16
2023-04-15T02:46:32.219Z,99649.28
2023-04-15T02:51:31.893Z,99649.06
2023-04-15T02:56:28.137Z,99652.44
2023-04-15T03:01:24.769Z,99654.53
2023-04-15T03:06:21.193Z,99657.19
2023-04-15T03:11:18.590Z,99650.63
2023-04-15T03:16:14.881Z,99643.13
2023-04-15T03:21:11.225Z,99645.41
2023-04-15T03:26:07.552Z,99638.94
2023-04-15T03:31:03.833Z,99633.66
2023-04-15T03:36:00.261Z,99633.50
2023-04-15T03:40:56.548Z,99636.47
2023-04-15T03:45:52.858Z,99643.06
2023-04-15T03:50:49.115Z,99658.66
2023-04-15T03:55:45.344Z,99657.41
2023-04-15T04:00:42.461Z,99669.00
2023-04-15T04:05:41.308Z,99669.00
2023-04-15T04:10:37.593Z,99685.06
2023-04-15T04:15:34.162Z,99678.94
2023-04-15T04:20:32.114Z,99677.66
2023-04-15T04:25:28.381Z,99676.19
2023-04-15T04:30:24.783Z,99687.31
2023-04-15T04:35:21.923Z,99683.75
2023-04-15T04:40:18.200Z,99683.88
2023-04-15T04:45:14.802Z,99670.38
2023-04-15T04:50:11.567Z,99677.13
2023-04-15T04:55:08.856Z,99676.53
2023-04-15T05:00:06.054Z,99678.75
2023-04-15T05:05:02.350Z,99683.59
2023-04-15T05:09:58.672Z,99675.06
2023-04-15T05:14:55.073Z,99684.16
2023-04-15T05:19:51.432Z,99691.63
2023-04-15T05:24:47.720Z,99687.72
2023-04-15T05:29:43.956Z,99680.44
2023-04-15T05:34:40.388Z,99686.03
2023-04-15T05:39:36.792Z,99685.59
2023-04-15T05:44:33.037Z,99692.13
2023-04-15T05:49:29.746Z,99688.22
2023-04-15T05:54:27.761Z,99697.97
2023-04-15T05:59:24.014Z,99706.63
2023-04-15T06:04:20.434Z,99712.44
2023-04-15T06:09:16.883Z,99720.84
2023-04-15T06:14:14.828Z,99730.69
2023-04-15T06:19:12.294Z,99730.03
2023-04-15T06:24:08.545Z,99730.16
2023-04-15T06:29:04.792Z,99726.03
2023-04-15T06:34:01.178Z,99727.06
2023-04-15T06:38:57.817Z,99741.34
2023-04-15T06:43:54.077Z,99736.22
2023-04-15T06:48:50.377Z,99736.91
2023-04-15T06:53:46.626Z,99736.38
2023-04-15T06:58:42.850Z,99741.97
2023-04-15T07:03:39.090Z,99742.59
2023-04-15T07:08:35.365Z,99745.47
2023-04-15T07:13:32.342Z,99747.78
2023-04-15T07:18:28.649Z,99743.88
2023-04-15T07:23:24.944Z,99748.09
2023-04-15T07:28:21.398Z,99753.69
2023-04-15T07:33:17.716Z,99764.34
2023-04-15T07:38:13.978Z,99772.72
2023-04-15T07:43:10.764Z,99766.59
2023-04-15T07:48:07.977Z,99781.69
2023-04-15T07:53:04.300Z,99780.41
2023-04-15T07:58:00.527Z,99792.38
2023-04-15T08:02:57.499Z,99793.72
2023-04-15T08:07:53.906Z,99805.25
2023-04-15T08:12:50.827Z,99812.53
2023-04-15T08:17:47.302Z,99814.63
2023-04-15T08:22:43.627Z,99820.13
2023-04-15T08:27:39.877Z,99813.03
2023-04-15T08:32:36.257Z,99811.66
2023-04-15T08:37:32.542Z,99823.03
2023-04-15T08:42:31.912Z,99826.81
2023-04-15T08:47:30.180Z,99824.50
2023-04-15T08:52:26.707Z,99816.63
2023-04-15T08:57:26.390Z,99818.09
2023-04-15T09:02:23.492Z,99824.66
2023-04-15T09:07:19.851Z,99823.13
2023-04-15T09:12:17.147Z,99817.00
2023-04-15T09:17:13.574Z,99811.50
2023-04-15T09:22:09.871Z,99829.69
2023-04-15T09:27:06.501Z,99830.94
2023-04-15T09:32:12.907Z,99832.72
2023-04-15T09:37:10.820Z,99844.22
2023-04-15T09:42:08.047Z,99848.69
2023-04-15T09:47:04.411Z,99844.59
2023-04-15T09:52:06.322Z,99844.59
2023-04-15T09:57:09.997Z,99857.41
2023-04-15T10:02:07.588Z,99853.28
2023-04-15T10:07:05.278Z,99874.88
2023-04-15T10:12:02.661Z,99872.41
2023-04-15T10:17:01.314Z,99869.03
2023-04-15T10:21:58.349Z,99875.63
2023-04-15T10:26:55.349Z,99885.03
2023-04-15T10:31:52.404Z,99874.22
2023-04-15T10:36:48.818Z,99883.38
2023-04-15T10:41:45.090Z,99887.22
2023-04-15T10:46:42.005Z,99884.56
2023-04-15T10:51:42.650Z,99898.94
2023-04-15T10:56:41.181Z,99904.31
2023-04-15T11:01:50.075Z,99915.44
2023-04-15T11:06:46.441Z,99921.56
2023-04-15T11:12:05.518Z,99915.44
2023-04-15T11:17:01.835Z,99924.13
2023-04-15T11:21:58.066Z,99928.09
2023-04-15T11:26:58.261Z,99930.41
2023-04-15T11:32:02.238Z,99930.19
2023-04-15T11:36:58.566Z,99944.28
2023-04-15T11:41:54.964Z,99949.09
2023-04-15T11:46:51.229Z,99950.94
2023-04-15T11:51:47.709Z,99960.78
2023-04-15T11:56:49.945Z,99962.34
2023-04-15T12:01:47.605Z,99963.44
2023-04-15T12:06:45.113Z,99965.13
2023-04-15T12:11:42.891Z,99974.78
2023-04-15T12:16:48.718Z,99977.41
2023-04-15T12:21:46.995Z,99986.84
2023-04-15T12:26:44.742Z,99989.47
2023-04-15T12:31:49.041Z,100003.69
2023-04-15T12:36:45.511Z,100009.34
2023-04-15T12:41:41.816Z,100008.75
2023-04-15T12:46:38.240Z,100021.75
2023-04-15T12:51:34.512Z,100023.91
2023-04-15T12:56:30.744Z,100028.22
2023-04-15T13:01:27.421Z,100031.72
2023-04-15T13:06:24.633Z,100031.63
2023-04-15T13:11:21.998Z,100042.31
2023-04-15T13:16:18.515Z,100042.00
2023-04-15T13:21:15.494Z,100039.34
2023-04-15T13:26:12.235Z,100054.28
2023-04-15T13:31:08.891Z,100046.56
2023-04-15T13:36:06.688Z,100067.03
2023-04-15T13:41:03.075Z,100079.53
2023-04-15T13:45:59.408Z,100080.34
2023-04-15T13:50:55.760Z,100085.78
2023-04-15T13:55:52.234Z,100102.63
2023-04-15T14:00:48.579Z,100120.00
2023-04-15T14:05:45.281Z,100130.28
2023-04-15T14:10:44.195Z,100135.59
2023-04-15T14:15:40.985Z,100139.19
2023-04-15T14:20:37.544Z,100164.72
2023-04-15T14:25:34.287Z,100181.56
2023-04-15T14:30:30.791Z,100192.91
2023-04-15T14:35:27.379Z,100201.09
2023-04-15T14:40:23.773Z,100207.00
2023-04-15T14:45:20.129Z,100231.69
2023-04-15T14:50:17.215Z,100249.25
2023-04-15T14:55:13.693Z,100267.50
2023-04-15T15:00:12.756Z,100279.88
2023-04-15T15:05:12.043Z,100281.69
2023-04-15T15:10:09.272Z,100299.28
2023-04-15T15:15:15.523Z,100319.44
2023-04-15T15:20:12.369Z,100328.31
2023-04-15T15:25:08.692Z,100349.00
2023-04-15T15:30:06.994Z,100348.88
2023-04-15T15:35:03.431Z,100374.34
2023-04-15T15:40:01.271Z,100378.78
2023-04-15T15:44:57.664Z,100393.72
2023-04-15T15:49:54.631Z,100400.72
2023-04-15T15:54:50.926Z,100411.44
2023-04-15T15:59:47.197Z,100426.25
2023-04-15T16:04:43.575Z,100436.13
2023-04-15T16:09:41.036Z,100437.72
2023-04-15T16:14:37.324Z,100457.84
2023-04-15T16:19:33.858Z,100474.72
2023-04-15T16:24:31.320Z,100474.72
2023-04-15T16:29:28.526Z,100487.97
2023-04-15T16:34:24.827Z,100501.94
2023-04-15T16:39:23.125Z,100505.38
2023-04-15T16:44:19.390Z,100516.81
2023-04-15T16:49:15.655Z,100522.00
2023-04-15T16:54:11.990Z,100526.34
2023-04-15T16:59:08.493Z,100537.59
2023-04-15T17:04:05.718Z,100550.00
2023-04-15T17:09:02.337Z,100557.75
2023-04-15T17:13:58.762Z,100564.38
2023-04-15T17:18:55.290Z,100566.16
2023-04-15T17:23:51.716Z,100564.88
2023-04-15T17:28:47.988Z,100564.88
2023-04-15T17:33:59.909Z,100551.63
2023-04-15T17:39:00.824Z,100560.13
2023-04-15T17:43:57.098Z,100565.53
2023-04-15T17:48:53.373Z,100563.00
2023-04-15T17:53:49.909Z,100555.25
2023-04-15T17:58:46.216Z,100562.25
2023-04-15T18:03:42.634Z,100570.94
2023-04-15T18:08:39.079Z,100573.50
2023-04-15T18:13:35.381Z,100573.59
